PWSweather.com
Personal Weather Stations
Station Observations
KTXROWLE6
Ravens Nest, Rowlett, TX 75089

Ravens NestRowlett, TX 75089

Lat: 32.93105, Lon: -96.57368

Elevation: 556

Station Type: Davis Vantage Pro2 6152

http://rowlett.ws

High Low Average
Temperature 41.4°F5.2°C 31.8°F-0.1°C 37.0°F2.8°C
Dew Point 37.8°F3.2°C 27.8°F-2.3°C 32.7°F0.4°C
Winds 2.8 mph 4.5 kmh Calm Calm 1.0 mph S1.6 kmh S
Wind Gusts 7.0 mph11.3 kmh 1.0 mph1.6 kmh 4.0 mph6.4 kmh
Humidity 92% 78% 84%
Pressure 30.20 in1022.7 mb 30.08 in1018.6 mb -
Precipitation 0.00 in0.0 mm - -
Hour Temp Dew Point Humidity Winds Wind Gusts Pressure Precip Precip Rate Daily Precip Total
12:00 AM 32.5°F0.3°C 28.2°F-2.1°C 84% 2.0 mph NW3.2 kmh NW 5.0 mph8.0 kmh 30.19 in1022.4 mb 0.00 in0.0 mm 0.00 in0.0 mm 0.00 in0.0 mm
12:05 AM 32.4°F0.2°C 28.1°F-2.2°C 84% 1.5 mph N2.4 kmh N 5.0 mph8.0 kmh 30.19 in1022.4 mb 0.00 in0.0 mm 0.00 in0.0 mm 0.00 in0.0 mm
12:10 AM 32.2°F0.1°C 27.9°F-2.3°C 84% 2.0 mph NW3.2 kmh NW 4.0 mph6.4 kmh 30.19 in1022.4 mb 0.00 in0.0 mm 0.00 in0.0 mm 0.00 in0.0 mm
12:15 AM 32.0°F0.0°C 27.7°F-2.4°C 84% 1.9 mph NNW3.1 kmh NNW 6.0 mph9.7 kmh 30.19 in1022.4 mb 0.00 in0.0 mm 0.00 in0.0 mm 0.00 in0.0 mm
12:20 AM 31.8°F-0.1°C 27.8°F-2.3°C 85% 2.3 mph NW3.7 kmh NW 6.0 mph9.7 kmh 30.19 in1022.4 mb 0.00 in0.0 mm 0.00 in0.0 mm 0.00 in0.0 mm
12:25 AM 31.7°F-0.2°C 27.7°F-2.4°C 85% 1.5 mph NW2.4 kmh NW 5.0 mph8.0 kmh 30.19 in1022.4 mb 0.00 in0.0 mm 0.00 in0.0 mm 0.00 in0.0 mm
12:30 AM 31.7°F-0.2°C 27.7°F-2.4°C 85% 1.8 mph NW2.9 kmh NW 4.0 mph6.4 kmh 30.19 in1022.4 mb 0.00 in0.0 mm 0.00 in0.0 mm 0.00 in0.0 mm
12:35 AM 31.6°F-0.2°C 27.6°F-2.4°C 85% 2.2 mph NW3.5 kmh NW 7.0 mph11.3 kmh 30.19 in1022.4 mb 0.00 in0.0 mm 0.00 in0.0 mm 0.00 in0.0 mm
12:40 AM 31.7°F-0.2°C 27.7°F-2.4°C 85% 1.9 mph NNW3.1 kmh NNW 7.0 mph11.3 kmh 30.18 in1022.0 mb 0.00 in0.0 mm 0.00 in0.0 mm 0.00 in0.0 mm
12:45 AM 31.8°F-0.1°C 27.8°F-2.3°C 85% 2.3 mph NNW3.7 kmh NNW 6.0 mph9.7 kmh 30.18 in1022.0 mb 0.00 in0.0 mm 0.00 in0.0 mm 0.00 in0.0 mm
12:50 AM 31.8°F-0.1°C 27.8°F-2.3°C 85% 2.3 mph NW3.7 kmh NW 6.0 mph9.7 kmh 30.18 in1022.0 mb 0.00 in0.0 mm 0.00 in0.0 mm 0.00 in0.0 mm
12:55 AM 31.9°F-0.1°C 27.9°F-2.3°C 85% 1.9 mph NW3.1 kmh NW 6.0 mph9.7 kmh 30.17 in1021.7 mb 0.00 in0.0 mm 0.00 in0.0 mm 0.00 in0.0 mm
01:00 AM 31.9°F-0.1°C 27.9°F-2.3°C 85% 1.6 mph NNW2.6 kmh NNW 4.0 mph6.4 kmh 30.17 in1021.7 mb 0.00 in0.0 mm 0.00 in0.0 mm 0.00 in0.0 mm
01:05 AM 31.9°F-0.1°C 27.9°F-2.3°C 85% 1.8 mph NNW2.9 kmh NNW 5.0 mph8.0 kmh 30.16 in1021.3 mb 0.00 in0.0 mm 0.00 in0.0 mm 0.00 in0.0 mm
01:10 AM 31.9°F-0.1°C 27.9°F-2.3°C 85% 2.1 mph NNW3.4 kmh NNW 5.0 mph8.0 kmh 30.16 in1021.3 mb 0.00 in0.0 mm 0.00 in0.0 mm 0.00 in0.0 mm
01:15 AM 32.0°F0.0°C 28.0°F-2.2°C 85% 2.5 mph NW4.0 kmh NW 7.0 mph11.3 kmh 30.16 in1021.3 mb 0.00 in0.0 mm 0.00 in0.0 mm 0.00 in0.0 mm
01:20 AM 31.9°F-0.1°C 27.9°F-2.3°C 85% 2.0 mph NW3.2 kmh NW 7.0 mph11.3 kmh 30.16 in1021.3 mb 0.00 in0.0 mm 0.00 in0.0 mm 0.00 in0.0 mm
01:25 AM 32.0°F0.0°C 28.0°F-2.2°C 85% 2.0 mph NW3.2 kmh NW 5.0 mph8.0 kmh 30.16 in1021.3 mb 0.00 in0.0 mm 0.00 in0.0 mm 0.00 in0.0 mm
01:30 AM 31.8°F-0.1°C 27.8°F-2.3°C 85% 2.5 mph NW4.0 kmh NW 5.0 mph8.0 kmh 30.16 in1021.3 mb 0.00 in0.0 mm 0.00 in0.0 mm 0.00 in0.0 mm
01:35 AM 31.9°F-0.1°C 27.9°F-2.3°C 85% 1.9 mph NW3.1 kmh NW 5.0 mph8.0 kmh 30.15 in1021.0 mb 0.00 in0.0 mm 0.00 in0.0 mm 0.00 in0.0 mm
01:40 AM 31.8°F-0.1°C 28.1°F-2.2°C 86% 2.6 mph NW4.2 kmh NW 5.0 mph8.0 kmh 30.16 in1021.3 mb 0.00 in0.0 mm 0.00 in0.0 mm 0.00 in0.0 mm
01:45 AM 31.9°F-0.1°C 28.2°F-2.1°C 86% 2.2 mph N3.5 kmh N 7.0 mph11.3 kmh 30.15 in1021.0 mb 0.00 in0.0 mm 0.00 in0.0 mm 0.00 in0.0 mm
01:50 AM 32.0°F0.0°C 28.0°F-2.2°C 85% 2.4 mph NW3.9 kmh NW 7.0 mph11.3 kmh 30.16 in1021.3 mb 0.00 in0.0 mm 0.00 in0.0 mm 0.00 in0.0 mm
01:55 AM 31.9°F-0.1°C 28.2°F-2.1°C 86% 2.5 mph NW4.0 kmh NW 7.0 mph11.3 kmh 30.16 in1021.3 mb 0.00 in0.0 mm 0.00 in0.0 mm 0.00 in0.0 mm
02:00 AM 31.9°F-0.1°C 28.2°F-2.1°C 86% 2.1 mph NNW3.4 kmh NNW 5.0 mph8.0 kmh 30.16 in1021.3 mb 0.00 in0.0 mm 0.00 in0.0 mm 0.00 in0.0 mm
02:05 AM 32.0°F0.0°C 28.3°F-2.1°C 86% 1.2 mph NNW1.9 kmh NNW 5.0 mph8.0 kmh 30.16 in1021.3 mb 0.00 in0.0 mm 0.00 in0.0 mm 0.00 in0.0 mm
02:10 AM 32.0°F0.0°C 28.3°F-2.1°C 86% 1.5 mph N2.4 kmh N 4.0 mph6.4 kmh 30.16 in1021.3 mb 0.00 in0.0 mm 0.00 in0.0 mm 0.00 in0.0 mm
02:15 AM 32.0°F0.0°C 28.6°F-1.9°C 87% 0.8 mph NNW1.3 kmh NNW 4.0 mph6.4 kmh 30.16 in1021.3 mb 0.00 in0.0 mm 0.00 in0.0 mm 0.00 in0.0 mm
02:20 AM 32.0°F0.0°C 28.6°F-1.9°C 87% 0.6 mph NNW1.0 kmh NNW 4.0 mph6.4 kmh 30.16 in1021.3 mb 0.00 in0.0 mm 0.00 in0.0 mm 0.00 in0.0 mm
02:25 AM 32.2°F0.1°C 28.5°F-1.9°C 86% 1.0 mph NNW1.6 kmh NNW 4.0 mph6.4 kmh 30.17 in1021.7 mb 0.00 in0.0 mm 0.00 in0.0 mm 0.00 in0.0 mm
02:30 AM 32.0°F0.0°C 28.3°F-2.1°C 86% 1.7 mph N2.7 kmh N 4.0 mph6.4 kmh 30.16 in1021.3 mb 0.00 in0.0 mm 0.00 in0.0 mm 0.00 in0.0 mm
02:35 AM 32.0°F0.0°C 28.6°F-1.9°C 87% 1.5 mph N2.4 kmh N 4.0 mph6.4 kmh 30.17 in1021.7 mb 0.00 in0.0 mm 0.00 in0.0 mm 0.00 in0.0 mm
02:40 AM 31.9°F-0.1°C 28.2°F-2.1°C 86% 1.6 mph NNW2.6 kmh NNW 4.0 mph6.4 kmh 30.16 in1021.3 mb 0.00 in0.0 mm 0.00 in0.0 mm 0.00 in0.0 mm
02:45 AM 32.0°F0.0°C 28.3°F-2.1°C 86% 1.2 mph N1.9 kmh N 4.0 mph6.4 kmh 30.16 in1021.3 mb 0.00 in0.0 mm 0.00 in0.0 mm 0.00 in0.0 mm
02:50 AM 32.0°F0.0°C 28.6°F-1.9°C 87% 1.2 mph N1.9 kmh N 4.0 mph6.4 kmh 30.16 in1021.3 mb 0.00 in0.0 mm 0.00 in0.0 mm 0.00 in0.0 mm
02:55 AM 32.0°F0.0°C 28.3°F-2.1°C 86% 1.7 mph NNE2.7 kmh NNE 5.0 mph8.0 kmh 30.15 in1021.0 mb 0.00 in0.0 mm 0.00 in0.0 mm 0.00 in0.0 mm
03:00 AM 32.0°F0.0°C 28.6°F-1.9°C 87% 0.4 mph N0.6 kmh N 5.0 mph8.0 kmh 30.15 in1021.0 mb 0.00 in0.0 mm 0.00 in0.0 mm 0.00 in0.0 mm
03:05 AM 32.1°F0.1°C 28.4°F-2.0°C 86% 0.8 mph NNE1.3 kmh NNE 4.0 mph6.4 kmh 30.15 in1021.0 mb 0.00 in0.0 mm 0.00 in0.0 mm 0.00 in0.0 mm
03:10 AM 32.1°F0.1°C 28.4°F-2.0°C 86% 1.4 mph NW2.3 kmh NW 5.0 mph8.0 kmh 30.16 in1021.3 mb 0.00 in0.0 mm 0.00 in0.0 mm 0.00 in0.0 mm
03:15 AM 32.1°F0.1°C 28.4°F-2.0°C 86% 1.2 mph N1.9 kmh N 5.0 mph8.0 kmh 30.15 in1021.0 mb 0.00 in0.0 mm 0.00 in0.0 mm 0.00 in0.0 mm
03:20 AM 32.1°F0.1°C 28.4°F-2.0°C 86% 1.0 mph N1.6 kmh N 4.0 mph6.4 kmh 30.15 in1021.0 mb 0.00 in0.0 mm 0.00 in0.0 mm 0.00 in0.0 mm
03:25 AM 32.1°F0.1°C 28.4°F-2.0°C 86% 1.1 mph N1.8 kmh N 3.0 mph4.8 kmh 30.15 in1021.0 mb 0.00 in0.0 mm 0.00 in0.0 mm 0.00 in0.0 mm
03:30 AM 32.2°F0.1°C 28.5°F-1.9°C 86% 1.1 mph N1.8 kmh N 3.0 mph4.8 kmh 30.15 in1021.0 mb 0.00 in0.0 mm 0.00 in0.0 mm 0.00 in0.0 mm
03:35 AM 32.2°F0.1°C 28.5°F-1.9°C 86% 1.4 mph NW2.3 kmh NW 4.0 mph6.4 kmh 30.15 in1021.0 mb 0.00 in0.0 mm 0.00 in0.0 mm 0.00 in0.0 mm
03:40 AM 32.4°F0.2°C 28.4°F-2.0°C 85% 0.7 mph NNW1.1 kmh NNW 4.0 mph6.4 kmh 30.15 in1021.0 mb 0.00 in0.0 mm 0.00 in0.0 mm 0.00 in0.0 mm
03:45 AM 32.3°F0.2°C 28.6°F-1.9°C 86% 1.2 mph NNW1.9 kmh NNW 4.0 mph6.4 kmh 30.15 in1021.0 mb 0.00 in0.0 mm 0.00 in0.0 mm 0.00 in0.0 mm
03:50 AM 32.3°F0.2°C 28.6°F-1.9°C 86% 1.2 mph NW1.9 kmh NW 5.0 mph8.0 kmh 30.16 in1021.3 mb 0.00 in0.0 mm 0.00 in0.0 mm 0.00 in0.0 mm
03:55 AM 32.4°F0.2°C 28.4°F-2.0°C 85% 1.1 mph NW1.8 kmh NW 5.0 mph8.0 kmh 30.15 in1021.0 mb 0.00 in0.0 mm 0.00 in0.0 mm 0.00 in0.0 mm
04:00 AM 32.4°F0.2°C 28.7°F-1.8°C 86% 0.6 mph NW1.0 kmh NW 3.0 mph4.8 kmh 30.16 in1021.3 mb 0.00 in0.0 mm 0.00 in0.0 mm 0.00 in0.0 mm
04:05 AM 32.5°F0.3°C 28.8°F-1.8°C 86% 1.2 mph NW1.9 kmh NW 3.0 mph4.8 kmh 30.15 in1021.0 mb 0.00 in0.0 mm 0.00 in0.0 mm 0.00 in0.0 mm
04:10 AM 32.4°F0.2°C 28.4°F-2.0°C 85% 1.4 mph NW2.3 kmh NW 4.0 mph6.4 kmh 30.16 in1021.3 mb 0.00 in0.0 mm 0.00 in0.0 mm 0.00 in0.0 mm
04:15 AM 32.4°F0.2°C 28.7°F-1.8°C 86% 1.6 mph NW2.6 kmh NW 4.0 mph6.4 kmh 30.16 in1021.3 mb 0.00 in0.0 mm 0.00 in0.0 mm 0.00 in0.0 mm
04:20 AM 32.4°F0.2°C 28.7°F-1.8°C 86% 1.3 mph NW2.1 kmh NW 4.0 mph6.4 kmh 30.15 in1021.0 mb 0.00 in0.0 mm 0.00 in0.0 mm 0.00 in0.0 mm
04:25 AM 32.4°F0.2°C 28.7°F-1.8°C 86% 1.5 mph NW2.4 kmh NW 5.0 mph8.0 kmh 30.16 in1021.3 mb 0.00 in0.0 mm 0.00 in0.0 mm 0.00 in0.0 mm
04:30 AM 32.5°F0.3°C 28.8°F-1.8°C 86% 2.2 mph NW3.5 kmh NW 5.0 mph8.0 kmh 30.15 in1021.0 mb 0.00 in0.0 mm 0.00 in0.0 mm 0.00 in0.0 mm
04:35 AM 32.5°F0.3°C 28.8°F-1.8°C 86% 1.8 mph NW2.9 kmh NW 4.0 mph6.4 kmh 30.15 in1021.0 mb 0.00 in0.0 mm 0.00 in0.0 mm 0.00 in0.0 mm
04:40 AM 32.6°F0.3°C 28.9°F-1.7°C 86% 1.7 mph NW2.7 kmh NW 6.0 mph9.7 kmh 30.14 in1020.7 mb 0.00 in0.0 mm 0.00 in0.0 mm 0.00 in0.0 mm
04:45 AM 32.6°F0.3°C 28.9°F-1.7°C 86% 2.0 mph NW3.2 kmh NW 6.0 mph9.7 kmh 30.15 in1021.0 mb 0.00 in0.0 mm 0.00 in0.0 mm 0.00 in0.0 mm
04:50 AM 32.5°F0.3°C 28.8°F-1.8°C 86% 2.8 mph NW4.5 kmh NW 5.0 mph8.0 kmh 30.15 in1021.0 mb 0.00 in0.0 mm 0.00 in0.0 mm 0.00 in0.0 mm
04:55 AM 32.6°F0.3°C 28.9°F-1.7°C 86% 1.4 mph NW2.3 kmh NW 5.0 mph8.0 kmh 30.15 in1021.0 mb 0.00 in0.0 mm 0.00 in0.0 mm 0.00 in0.0 mm
05:00 AM 32.5°F0.3°C 28.8°F-1.8°C 86% 1.9 mph WNW3.1 kmh WNW 5.0 mph8.0 kmh 30.15 in1021.0 mb 0.00 in0.0 mm 0.00 in0.0 mm 0.00 in0.0 mm
05:05 AM 32.4°F0.2°C 28.7°F-1.8°C 86% 1.4 mph NW2.3 kmh NW 5.0 mph8.0 kmh 30.15 in1021.0 mb 0.00 in0.0 mm 0.00 in0.0 mm 0.00 in0.0 mm
05:10 AM 32.4°F0.2°C 29.0°F-1.7°C 87% 1.4 mph NW2.3 kmh NW 4.0 mph6.4 kmh 30.15 in1021.0 mb 0.00 in0.0 mm 0.00 in0.0 mm 0.00 in0.0 mm
05:15 AM 32.3°F0.2°C 28.6°F-1.9°C 86% 1.2 mph N1.9 kmh N 4.0 mph6.4 kmh 30.14 in1020.7 mb 0.00 in0.0 mm 0.00 in0.0 mm 0.00 in0.0 mm
05:20 AM 32.4°F0.2°C 28.7°F-1.8°C 86% 0.8 mph N1.3 kmh N 4.0 mph6.4 kmh 30.14 in1020.7 mb 0.00 in0.0 mm 0.00 in0.0 mm 0.00 in0.0 mm
05:25 AM 32.4°F0.2°C 29.0°F-1.7°C 87% 0.5 mph NNW0.8 kmh NNW 3.0 mph4.8 kmh 30.15 in1021.0 mb 0.00 in0.0 mm 0.00 in0.0 mm 0.00 in0.0 mm
05:30 AM 32.5°F0.3°C 28.8°F-1.8°C 86% 0.8 mph NNW1.3 kmh NNW 3.0 mph4.8 kmh 30.15 in1021.0 mb 0.00 in0.0 mm 0.00 in0.0 mm 0.00 in0.0 mm
05:35 AM 32.4°F0.2°C 29.0°F-1.7°C 87% 0.5 mph NW0.8 kmh NW 3.0 mph4.8 kmh 30.15 in1021.0 mb 0.00 in0.0 mm 0.00 in0.0 mm 0.00 in0.0 mm
05:40 AM 32.4°F0.2°C 28.7°F-1.8°C 86% 0.8 mph NW1.3 kmh NW 2.0 mph3.2 kmh 30.15 in1021.0 mb 0.00 in0.0 mm 0.00 in0.0 mm 0.00 in0.0 mm
05:45 AM 32.5°F0.3°C 28.8°F-1.8°C 86% 0.8 mph NW1.3 kmh NW 3.0 mph4.8 kmh 30.15 in1021.0 mb 0.00 in0.0 mm 0.00 in0.0 mm 0.00 in0.0 mm
05:50 AM 32.5°F0.3°C 28.8°F-1.8°C 86% 0.8 mph NNW1.3 kmh NNW 3.0 mph4.8 kmh 30.15 in1021.0 mb 0.00 in0.0 mm 0.00 in0.0 mm 0.00 in0.0 mm
05:55 AM 32.6°F0.3°C 28.9°F-1.7°C 86% 1.0 mph NW1.6 kmh NW 3.0 mph4.8 kmh 30.15 in1021.0 mb 0.00 in0.0 mm 0.00 in0.0 mm 0.00 in0.0 mm
06:00 AM 32.6°F0.3°C 28.9°F-1.7°C 86% 0.7 mph N1.1 kmh N 3.0 mph4.8 kmh 30.14 in1020.7 mb 0.00 in0.0 mm 0.00 in0.0 mm 0.00 in0.0 mm
06:05 AM 32.6°F0.3°C 28.9°F-1.7°C 86% 1.2 mph N1.9 kmh N 3.0 mph4.8 kmh 30.14 in1020.7 mb 0.00 in0.0 mm 0.00 in0.0 mm 0.00 in0.0 mm
06:10 AM 32.6°F0.3°C 28.9°F-1.7°C 86% 1.1 mph NNW1.8 kmh NNW 3.0 mph4.8 kmh 30.14 in1020.7 mb 0.00 in0.0 mm 0.00 in0.0 mm 0.00 in0.0 mm
06:15 AM 32.6°F0.3°C 28.9°F-1.7°C 86% 1.5 mph NNE2.4 kmh NNE 4.0 mph6.4 kmh 30.14 in1020.7 mb 0.00 in0.0 mm 0.00 in0.0 mm 0.00 in0.0 mm
06:20 AM 32.6°F0.3°C 28.9°F-1.7°C 86% 1.2 mph NNW1.9 kmh NNW 4.0 mph6.4 kmh 30.14 in1020.7 mb 0.00 in0.0 mm 0.00 in0.0 mm 0.00 in0.0 mm
06:25 AM 32.6°F0.3°C 28.9°F-1.7°C 86% 1.2 mph N1.9 kmh N 4.0 mph6.4 kmh 30.15 in1021.0 mb 0.00 in0.0 mm 0.00 in0.0 mm 0.00 in0.0 mm
06:30 AM 32.6°F0.3°C 28.9°F-1.7°C 86% 1.1 mph N1.8 kmh N 4.0 mph6.4 kmh 30.15 in1021.0 mb 0.00 in0.0 mm 0.00 in0.0 mm 0.00 in0.0 mm
06:35 AM 32.6°F0.3°C 28.9°F-1.7°C 86% 1.2 mph NNW1.9 kmh NNW 4.0 mph6.4 kmh 30.15 in1021.0 mb 0.00 in0.0 mm 0.00 in0.0 mm 0.00 in0.0 mm
06:40 AM 32.7°F0.4°C 29.0°F-1.7°C 86% 0.6 mph NNW1.0 kmh NNW 3.0 mph4.8 kmh 30.15 in1021.0 mb 0.00 in0.0 mm 0.00 in0.0 mm 0.00 in0.0 mm
06:45 AM 32.7°F0.4°C 29.0°F-1.7°C 86% 1.0 mph NNE1.6 kmh NNE 3.0 mph4.8 kmh 30.15 in1021.0 mb 0.00 in0.0 mm 0.00 in0.0 mm 0.00 in0.0 mm
06:50 AM 32.7°F0.4°C 29.0°F-1.7°C 86% 0.7 mph N1.1 kmh N 3.0 mph4.8 kmh 30.15 in1021.0 mb 0.00 in0.0 mm 0.00 in0.0 mm 0.00 in0.0 mm
06:55 AM 32.6°F0.3°C 28.9°F-1.7°C 86% 1.1 mph N1.8 kmh N 4.0 mph6.4 kmh 30.16 in1021.3 mb 0.00 in0.0 mm 0.00 in0.0 mm 0.00 in0.0 mm
07:00 AM 32.6°F0.3°C 29.2°F-1.6°C 87% 0.9 mph N1.4 kmh N 4.0 mph6.4 kmh 30.15 in1021.0 mb 0.00 in0.0 mm 0.00 in0.0 mm 0.00 in0.0 mm
07:05 AM 32.7°F0.4°C 29.0°F-1.7°C 86% 0.3 mph NE0.5 kmh NE 3.0 mph4.8 kmh 30.15 in1021.0 mb 0.00 in0.0 mm 0.00 in0.0 mm 0.00 in0.0 mm
07:10 AM 32.6°F0.3°C 29.2°F-1.6°C 87% 0.3 mph N0.5 kmh N 2.0 mph3.2 kmh 30.15 in1021.0 mb 0.00 in0.0 mm 0.00 in0.0 mm 0.00 in0.0 mm
07:15 AM 32.6°F0.3°C 29.2°F-1.6°C 87% 0.6 mph N1.0 kmh N 2.0 mph3.2 kmh 30.15 in1021.0 mb 0.00 in0.0 mm 0.00 in0.0 mm 0.00 in0.0 mm
07:20 AM 32.7°F0.4°C 29.3°F-1.5°C 87% 0.5 mph NNE0.8 kmh NNE 2.0 mph3.2 kmh 30.15 in1021.0 mb 0.00 in0.0 mm 0.00 in0.0 mm 0.00 in0.0 mm
07:25 AM 32.8°F0.4°C 29.4°F-1.4°C 87% 0.3 mph N0.5 kmh N 2.0 mph3.2 kmh 30.15 in1021.0 mb 0.00 in0.0 mm 0.00 in0.0 mm 0.00 in0.0 mm
07:30 AM 32.8°F0.4°C 29.1°F-1.6°C 86% 0.6 mph N1.0 kmh N 2.0 mph3.2 kmh 30.16 in1021.3 mb 0.00 in0.0 mm 0.00 in0.0 mm 0.00 in0.0 mm
07:35 AM 32.9°F0.5°C 29.2°F-1.6°C 86% 0.7 mph N1.1 kmh N 2.0 mph3.2 kmh 30.16 in1021.3 mb 0.00 in0.0 mm 0.00 in0.0 mm 0.00 in0.0 mm
07:40 AM 33.0°F0.6°C 29.3°F-1.5°C 86% 0.9 mph NW1.4 kmh NW 3.0 mph4.8 kmh 30.16 in1021.3 mb 0.00 in0.0 mm 0.00 in0.0 mm 0.00 in0.0 mm
07:45 AM 33.0°F0.6°C 29.3°F-1.5°C 86% 1.2 mph NNW1.9 kmh NNW 3.0 mph4.8 kmh 30.16 in1021.3 mb 0.00 in0.0 mm 0.00 in0.0 mm 0.00 in0.0 mm
07:50 AM 33.0°F0.6°C 29.3°F-1.5°C 86% 0.8 mph NW1.3 kmh NW 3.0 mph4.8 kmh 30.16 in1021.3 mb 0.00 in0.0 mm 0.00 in0.0 mm 0.00 in0.0 mm
07:55 AM 33.1°F0.6°C 29.4°F-1.4°C 86% 0.8 mph NNW1.3 kmh NNW 2.0 mph3.2 kmh 30.16 in1021.3 mb 0.00 in0.0 mm 0.00 in0.0 mm 0.00 in0.0 mm
08:00 AM 33.2°F0.7°C 29.2°F-1.6°C 85% 0.4 mph NNW0.6 kmh NNW 2.0 mph3.2 kmh 30.15 in1021.0 mb 0.00 in0.0 mm 0.00 in0.0 mm 0.00 in0.0 mm
08:05 AM 33.2°F0.7°C 29.2°F-1.6°C 85% 1.2 mph N1.9 kmh N 3.0 mph4.8 kmh 30.15 in1021.0 mb 0.00 in0.0 mm 0.00 in0.0 mm 0.00 in0.0 mm
08:10 AM 33.2°F0.7°C 29.5°F-1.4°C 86% 0.8 mph NNW1.3 kmh NNW 3.0 mph4.8 kmh 30.15 in1021.0 mb 0.00 in0.0 mm 0.00 in0.0 mm 0.00 in0.0 mm
08:15 AM 33.3°F0.7°C 29.3°F-1.5°C 85% 1.2 mph 1.9 kmh 3.0 mph4.8 kmh 30.15 in1021.0 mb 0.00 in0.0 mm 0.00 in0.0 mm 0.00 in0.0 mm
08:20 AM 33.3°F0.7°C 29.3°F-1.5°C 85% 0.6 mph N1.0 kmh N 3.0 mph4.8 kmh 30.15 in1021.0 mb 0.00 in0.0 mm 0.00 in0.0 mm 0.00 in0.0 mm
08:25 AM 33.5°F0.8°C 29.5°F-1.4°C 85% 0.7 mph N1.1 kmh N 2.0 mph3.2 kmh 30.15 in1021.0 mb 0.00 in0.0 mm 0.00 in0.0 mm 0.00 in0.0 mm
08:30 AM 33.5°F0.8°C 29.5°F-1.4°C 85% 0.8 mph NNE1.3 kmh NNE 3.0 mph4.8 kmh 30.15 in1021.0 mb 0.00 in0.0 mm 0.00 in0.0 mm 0.00 in0.0 mm
08:35 AM 33.6°F0.9°C 29.9°F-1.2°C 86% 0.5 mph NNE0.8 kmh NNE 3.0 mph4.8 kmh 30.14 in1020.7 mb 0.00 in0.0 mm 0.00 in0.0 mm 0.00 in0.0 mm
08:40 AM 33.6°F0.9°C 29.9°F-1.2°C 86% 0.2 mph ESE0.3 kmh ESE 3.0 mph4.8 kmh 30.14 in1020.7 mb 0.00 in0.0 mm 0.00 in0.0 mm 0.00 in0.0 mm
08:45 AM 33.8°F1.0°C 30.1°F-1.1°C 86% 0.6 mph E1.0 kmh E 4.0 mph6.4 kmh 30.14 in1020.7 mb 0.00 in0.0 mm 0.00 in0.0 mm 0.00 in0.0 mm
08:50 AM 33.9°F1.1°C 30.2°F-1.0°C 86% 0.7 mph NE1.1 kmh NE 4.0 mph6.4 kmh 30.14 in1020.7 mb 0.00 in0.0 mm 0.00 in0.0 mm 0.00 in0.0 mm
08:55 AM 33.9°F1.1°C 30.2°F-1.0°C 86% 0.8 mph E1.3 kmh E 4.0 mph6.4 kmh 30.14 in1020.7 mb 0.00 in0.0 mm 0.00 in0.0 mm 0.00 in0.0 mm
09:00 AM 33.9°F1.1°C 30.2°F-1.0°C 86% 0.1 mph SE0.2 kmh SE 2.0 mph3.2 kmh 30.15 in1021.0 mb 0.00 in0.0 mm 0.00 in0.0 mm 0.00 in0.0 mm
09:05 AM 34.0°F1.1°C 30.0°F-1.1°C 85% 0.3 mph WNW0.5 kmh WNW 2.0 mph3.2 kmh 30.15 in1021.0 mb 0.00 in0.0 mm 0.00 in0.0 mm 0.00 in0.0 mm
09:10 AM 34.0°F1.1°C 30.3°F-0.9°C 86% 0.1 mph N0.2 kmh N 2.0 mph3.2 kmh 30.16 in1021.3 mb 0.00 in0.0 mm 0.00 in0.0 mm 0.00 in0.0 mm
09:15 AM 33.9°F1.1°C 30.2°F-1.0°C 86% 0.6 mph NW1.0 kmh NW 2.0 mph3.2 kmh 30.16 in1021.3 mb 0.00 in0.0 mm 0.00 in0.0 mm 0.00 in0.0 mm
09:20 AM 34.1°F1.2°C 30.4°F-0.9°C 86% Calm Calm 2.0 mph3.2 kmh 30.16 in1021.3 mb 0.00 in0.0 mm 0.00 in0.0 mm 0.00 in0.0 mm
09:25 AM 34.4°F1.3°C 30.7°F-0.7°C 86% 0.1 mph NNW0.2 kmh NNW 1.0 mph1.6 kmh 30.17 in1021.7 mb 0.00 in0.0 mm 0.00 in0.0 mm 0.00 in0.0 mm
09:30 AM 34.4°F1.3°C 30.7°F-0.7°C 86% 0.6 mph NNE1.0 kmh NNE 2.0 mph3.2 kmh 30.17 in1021.7 mb 0.00 in0.0 mm 0.00 in0.0 mm 0.00 in0.0 mm
09:35 AM 34.4°F1.3°C 30.7°F-0.7°C 86% 0.1 mph N0.2 kmh N 2.0 mph3.2 kmh 30.17 in1021.7 mb 0.00 in0.0 mm 0.00 in0.0 mm 0.00 in0.0 mm
09:40 AM 34.7°F1.5°C 30.9°F-0.6°C 86% 0.3 mph N0.5 kmh N 2.0 mph3.2 kmh 30.17 in1021.7 mb 0.00 in0.0 mm 0.00 in0.0 mm 0.00 in0.0 mm
09:45 AM 34.7°F1.5°C 30.7°F-0.7°C 85% 0.4 mph NE0.6 kmh NE 2.0 mph3.2 kmh 30.17 in1021.7 mb 0.00 in0.0 mm 0.00 in0.0 mm 0.00 in0.0 mm
09:50 AM 34.8°F1.6°C 30.8°F-0.7°C 85% 0.7 mph NE1.1 kmh NE 3.0 mph4.8 kmh 30.17 in1021.7 mb 0.00 in0.0 mm 0.00 in0.0 mm 0.00 in0.0 mm
09:55 AM 35.0°F1.7°C 31.0°F-0.6°C 85% 0.5 mph E0.8 kmh E 3.0 mph4.8 kmh 30.18 in1022.0 mb 0.00 in0.0 mm 0.00 in0.0 mm 0.00 in0.0 mm
10:00 AM 34.9°F1.6°C 30.9°F-0.6°C 85% 0.9 mph ENE1.4 kmh ENE 3.0 mph4.8 kmh 30.17 in1021.7 mb 0.00 in0.0 mm 0.00 in0.0 mm 0.00 in0.0 mm
10:05 AM 35.1°F1.7°C 31.1°F-0.5°C 85% 0.9 mph ENE1.4 kmh ENE 5.0 mph8.0 kmh 30.17 in1021.7 mb 0.00 in0.0 mm 0.00 in0.0 mm 0.00 in0.0 mm
10:10 AM 35.1°F1.7°C 30.8°F-0.7°C 84% 0.6 mph ENE1.0 kmh ENE 5.0 mph8.0 kmh 30.17 in1021.7 mb 0.00 in0.0 mm 0.00 in0.0 mm 0.00 in0.0 mm
10:15 AM 35.1°F1.7°C 30.8°F-0.7°C 84% 0.6 mph NE1.0 kmh NE 2.0 mph3.2 kmh 30.18 in1022.0 mb 0.00 in0.0 mm 0.00 in0.0 mm 0.00 in0.0 mm
10:20 AM 35.2°F1.8°C 30.9°F-0.6°C 84% 1.0 mph NNW1.6 kmh NNW 2.0 mph3.2 kmh 30.18 in1022.0 mb 0.00 in0.0 mm 0.00 in0.0 mm 0.00 in0.0 mm
10:25 AM 35.3°F1.8°C 30.7°F-0.7°C 83% 0.7 mph ENE1.1 kmh ENE 2.0 mph3.2 kmh 30.17 in1021.7 mb 0.00 in0.0 mm 0.00 in0.0 mm 0.00 in0.0 mm
10:30 AM 35.3°F1.8°C 30.7°F-0.7°C 83% 1.0 mph ENE1.6 kmh ENE 2.0 mph3.2 kmh 30.17 in1021.7 mb 0.00 in0.0 mm 0.00 in0.0 mm 0.00 in0.0 mm
10:35 AM 35.4°F1.9°C 31.1°F-0.5°C 84% 1.0 mph E1.6 kmh E 5.0 mph8.0 kmh 30.17 in1021.7 mb 0.00 in0.0 mm 0.00 in0.0 mm 0.00 in0.0 mm
10:40 AM 35.7°F2.1°C 30.8°F-0.7°C 82% 0.6 mph E1.0 kmh E 5.0 mph8.0 kmh 30.18 in1022.0 mb 0.00 in0.0 mm 0.00 in0.0 mm 0.00 in0.0 mm
10:45 AM 35.9°F2.2°C 31.2°F-0.4°C 83% 0.4 mph E0.6 kmh E 2.0 mph3.2 kmh 30.17 in1021.7 mb 0.00 in0.0 mm 0.00 in0.0 mm 0.00 in0.0 mm
10:50 AM 36.1°F2.3°C 31.1°F-0.5°C 82% 0.9 mph ENE1.4 kmh ENE 3.0 mph4.8 kmh 30.17 in1021.7 mb 0.00 in0.0 mm 0.00 in0.0 mm 0.00 in0.0 mm
10:55 AM 36.0°F2.2°C 31.3°F-0.4°C 83% 0.9 mph ENE1.4 kmh ENE 3.0 mph4.8 kmh 30.17 in1021.7 mb 0.00 in0.0 mm 0.00 in0.0 mm 0.00 in0.0 mm
11:00 AM 36.3°F2.4°C 31.0°F-0.6°C 81% 1.0 mph NE1.6 kmh NE 3.0 mph4.8 kmh 30.17 in1021.7 mb 0.00 in0.0 mm 0.00 in0.0 mm 0.00 in0.0 mm
11:05 AM 36.4°F2.4°C 31.4°F-0.3°C 82% 1.3 mph N2.1 kmh N 3.0 mph4.8 kmh 30.17 in1021.7 mb 0.00 in0.0 mm 0.00 in0.0 mm 0.00 in0.0 mm
11:10 AM 36.6°F2.6°C 31.6°F-0.2°C 82% 0.7 mph ESE1.1 kmh ESE 3.0 mph4.8 kmh 30.17 in1021.7 mb 0.00 in0.0 mm 0.00 in0.0 mm 0.00 in0.0 mm
11:15 AM 36.7°F2.6°C 31.4°F-0.3°C 81% 1.2 mph E1.9 kmh E 4.0 mph6.4 kmh 30.17 in1021.7 mb 0.00 in0.0 mm 0.00 in0.0 mm 0.00 in0.0 mm
11:20 AM 36.7°F2.6°C 31.4°F-0.3°C 81% 1.2 mph E1.9 kmh E 4.0 mph6.4 kmh 30.18 in1022.0 mb 0.00 in0.0 mm 0.00 in0.0 mm 0.00 in0.0 mm
11:25 AM 36.9°F2.7°C 31.6°F-0.2°C 81% 0.6 mph ESE1.0 kmh ESE 3.0 mph4.8 kmh 30.18 in1022.0 mb 0.00 in0.0 mm 0.00 in0.0 mm 0.00 in0.0 mm
11:30 AM 37.1°F2.8°C 31.5°F-0.3°C 80% 1.0 mph E1.6 kmh E 3.0 mph4.8 kmh 30.17 in1021.7 mb 0.00 in0.0 mm 0.00 in0.0 mm 0.00 in0.0 mm
11:35 AM 37.0°F2.8°C 31.4°F-0.3°C 80% 0.5 mph E0.8 kmh E 3.0 mph4.8 kmh 30.18 in1022.0 mb 0.00 in0.0 mm 0.00 in0.0 mm 0.00 in0.0 mm
11:40 AM 37.2°F2.9°C 31.6°F-0.2°C 80% 0.5 mph SSE0.8 kmh SSE 2.0 mph3.2 kmh 30.18 in1022.0 mb 0.00 in0.0 mm 0.00 in0.0 mm 0.00 in0.0 mm
11:45 AM 37.5°F3.1°C 31.9°F-0.1°C 80% 0.1 mph ESE0.2 kmh ESE 2.0 mph3.2 kmh 30.18 in1022.0 mb 0.00 in0.0 mm 0.00 in0.0 mm 0.00 in0.0 mm
11:50 AM 37.5°F3.1°C 31.9°F-0.1°C 80% 0.3 mph ENE0.5 kmh ENE 1.0 mph1.6 kmh 30.17 in1021.7 mb 0.00 in0.0 mm 0.00 in0.0 mm 0.00 in0.0 mm
11:55 AM 37.5°F3.1°C 31.9°F-0.1°C 80% 0.6 mph E1.0 kmh E 2.0 mph3.2 kmh 30.17 in1021.7 mb 0.00 in0.0 mm 0.00 in0.0 mm 0.00 in0.0 mm
12:00 PM 37.6°F3.1°C 31.7°F-0.2°C 79% 1.1 mph ESE1.8 kmh ESE 3.0 mph4.8 kmh 30.17 in1021.7 mb 0.00 in0.0 mm 0.00 in0.0 mm 0.00 in0.0 mm
12:05 PM 37.8°F3.2°C 31.9°F-0.1°C 79% 1.5 mph ESE2.4 kmh ESE 3.0 mph4.8 kmh 30.17 in1021.7 mb 0.00 in0.0 mm 0.00 in0.0 mm 0.00 in0.0 mm
12:10 PM 37.5°F3.1°C 31.6°F-0.2°C 79% 0.9 mph S1.4 kmh S 3.0 mph4.8 kmh 30.18 in1022.0 mb 0.00 in0.0 mm 0.00 in0.0 mm 0.00 in0.0 mm
12:15 PM 37.4°F3.0°C 31.5°F-0.3°C 79% 0.5 mph W0.8 kmh W 2.0 mph3.2 kmh 30.17 in1021.7 mb 0.00 in0.0 mm 0.00 in0.0 mm 0.00 in0.0 mm
12:20 PM 37.5°F3.1°C 31.6°F-0.2°C 79% 0.4 mph SSW0.6 kmh SSW 1.0 mph1.6 kmh 30.18 in1022.0 mb 0.00 in0.0 mm 0.00 in0.0 mm 0.00 in0.0 mm
12:25 PM 37.7°F3.2°C 31.5°F-0.3°C 78% 0.1 mph SSW0.2 kmh SSW 1.0 mph1.6 kmh 30.18 in1022.0 mb 0.00 in0.0 mm 0.00 in0.0 mm 0.00 in0.0 mm
12:30 PM 37.6°F3.1°C 32.0°F0.0°C 80% 1.4 mph W2.3 kmh W 3.0 mph4.8 kmh 30.18 in1022.0 mb 0.00 in0.0 mm 0.00 in0.0 mm 0.00 in0.0 mm
12:35 PM 37.5°F3.1°C 31.9°F-0.1°C 80% 0.7 mph WNW1.1 kmh WNW 3.0 mph4.8 kmh 30.18 in1022.0 mb 0.00 in0.0 mm 0.00 in0.0 mm 0.00 in0.0 mm
12:40 PM 37.3°F2.9°C 32.0°F0.0°C 81% 0.6 mph NW1.0 kmh NW 2.0 mph3.2 kmh 30.18 in1022.0 mb 0.00 in0.0 mm 0.00 in0.0 mm 0.00 in0.0 mm
12:45 PM 37.3°F2.9°C 32.3°F0.2°C 82% 0.5 mph WSW0.8 kmh WSW 2.0 mph3.2 kmh 30.17 in1021.7 mb 0.00 in0.0 mm 0.00 in0.0 mm 0.00 in0.0 mm
12:50 PM 37.4°F3.0°C 32.7°F0.4°C 83% 1.1 mph W1.8 kmh W 2.0 mph3.2 kmh 30.17 in1021.7 mb 0.00 in0.0 mm 0.00 in0.0 mm 0.00 in0.0 mm
12:55 PM 37.3°F2.9°C 32.3°F0.2°C 82% 1.8 mph WNW2.9 kmh WNW 4.0 mph6.4 kmh 30.17 in1021.7 mb 0.00 in0.0 mm 0.00 in0.0 mm 0.00 in0.0 mm
01:00 PM 37.4°F3.0°C 32.4°F0.2°C 82% 0.8 mph WNW1.3 kmh WNW 4.0 mph6.4 kmh 30.16 in1021.3 mb 0.00 in0.0 mm 0.00 in0.0 mm 0.00 in0.0 mm
01:05 PM 37.7°F3.2°C 32.7°F0.4°C 82% 0.9 mph NW1.4 kmh NW 3.0 mph4.8 kmh 30.16 in1021.3 mb 0.00 in0.0 mm 0.00 in0.0 mm 0.00 in0.0 mm
01:10 PM 37.7°F3.2°C 32.4°F0.2°C 81% 1.2 mph NW1.9 kmh NW 3.0 mph4.8 kmh 30.16 in1021.3 mb 0.00 in0.0 mm 0.00 in0.0 mm 0.00 in0.0 mm
01:15 PM 38.0°F3.3°C 33.0°F0.6°C 82% 1.0 mph N1.6 kmh N 3.0 mph4.8 kmh 30.16 in1021.3 mb 0.00 in0.0 mm 0.00 in0.0 mm 0.00 in0.0 mm
01:20 PM 38.4°F3.6°C 33.1°F0.6°C 81% 0.9 mph N1.4 kmh N 3.0 mph4.8 kmh 30.16 in1021.3 mb 0.00 in0.0 mm 0.00 in0.0 mm 0.00 in0.0 mm
01:25 PM 38.4°F3.6°C 33.1°F0.6°C 81% 1.5 mph NW2.4 kmh NW 5.0 mph8.0 kmh 30.16 in1021.3 mb 0.00 in0.0 mm 0.00 in0.0 mm 0.00 in0.0 mm
01:30 PM 38.2°F3.4°C 32.9°F0.5°C 81% 1.2 mph NNW1.9 kmh NNW 5.0 mph8.0 kmh 30.16 in1021.3 mb 0.00 in0.0 mm 0.00 in0.0 mm 0.00 in0.0 mm
01:35 PM 38.4°F3.6°C 33.1°F0.6°C 81% 0.8 mph NE1.3 kmh NE 3.0 mph4.8 kmh 30.16 in1021.3 mb 0.00 in0.0 mm 0.00 in0.0 mm 0.00 in0.0 mm
01:40 PM 38.5°F3.6°C 33.5°F0.8°C 82% 0.9 mph N1.4 kmh N 3.0 mph4.8 kmh 30.16 in1021.3 mb 0.00 in0.0 mm 0.00 in0.0 mm 0.00 in0.0 mm
01:45 PM 38.5°F3.6°C 33.2°F0.7°C 81% 1.0 mph NNW1.6 kmh NNW 2.0 mph3.2 kmh 30.15 in1021.0 mb 0.00 in0.0 mm 0.00 in0.0 mm 0.00 in0.0 mm
01:50 PM 38.7°F3.7°C 33.4°F0.8°C 81% 1.2 mph N1.9 kmh N 3.0 mph4.8 kmh 30.14 in1020.7 mb 0.00 in0.0 mm 0.00 in0.0 mm 0.00 in0.0 mm
01:55 PM 38.7°F3.7°C 33.1°F0.6°C 80% 0.4 mph N0.6 kmh N 3.0 mph4.8 kmh 30.13 in1020.3 mb 0.00 in0.0 mm 0.00 in0.0 mm 0.00 in0.0 mm
02:00 PM 39.1°F3.9°C 33.8°F1.0°C 81% 1.0 mph N1.6 kmh N 3.0 mph4.8 kmh 30.12 in1020.0 mb 0.00 in0.0 mm 0.00 in0.0 mm 0.00 in0.0 mm
02:05 PM 39.2°F4.0°C 33.6°F0.9°C 80% 1.2 mph NNW1.9 kmh NNW 3.0 mph4.8 kmh 30.12 in1020.0 mb 0.00 in0.0 mm 0.00 in0.0 mm 0.00 in0.0 mm
02:10 PM 39.6°F4.2°C 33.9°F1.1°C 80% 0.1 mph NE0.2 kmh NE 3.0 mph4.8 kmh 30.11 in1019.6 mb 0.00 in0.0 mm 0.00 in0.0 mm 0.00 in0.0 mm
02:15 PM 39.9°F4.4°C 34.2°F1.2°C 80% 1.0 mph NE1.6 kmh NE 3.0 mph4.8 kmh 30.11 in1019.6 mb 0.00 in0.0 mm 0.00 in0.0 mm 0.00 in0.0 mm
02:20 PM 40.3°F4.6°C 34.3°F1.3°C 79% 0.6 mph NE1.0 kmh NE 3.0 mph4.8 kmh 30.11 in1019.6 mb 0.00 in0.0 mm 0.00 in0.0 mm 0.00 in0.0 mm
02:25 PM 39.9°F4.4°C 33.9°F1.1°C 79% 2.3 mph NNW3.7 kmh NNW 4.0 mph6.4 kmh 30.11 in1019.6 mb 0.00 in0.0 mm 0.00 in0.0 mm 0.00 in0.0 mm
02:30 PM 39.9°F4.4°C 34.2°F1.2°C 80% 0.7 mph NNW1.1 kmh NNW 4.0 mph6.4 kmh 30.11 in1019.6 mb 0.00 in0.0 mm 0.00 in0.0 mm 0.00 in0.0 mm
02:35 PM 39.7°F4.3°C 33.7°F0.9°C 79% 0.4 mph NW0.6 kmh NW 3.0 mph4.8 kmh 30.11 in1019.6 mb 0.00 in0.0 mm 0.00 in0.0 mm 0.00 in0.0 mm
02:40 PM 39.8°F4.3°C 33.8°F1.0°C 79% 0.5 mph N0.8 kmh N 2.0 mph3.2 kmh 30.11 in1019.6 mb 0.00 in0.0 mm 0.00 in0.0 mm 0.00 in0.0 mm
02:45 PM 39.9°F4.4°C 34.2°F1.2°C 80% 0.3 mph N0.5 kmh N 2.0 mph3.2 kmh 30.11 in1019.6 mb 0.00 in0.0 mm 0.00 in0.0 mm 0.00 in0.0 mm
02:50 PM 40.2°F4.6°C 34.5°F1.4°C 80% 0.5 mph ESE0.8 kmh ESE 2.0 mph3.2 kmh 30.10 in1019.3 mb 0.00 in0.0 mm 0.00 in0.0 mm 0.00 in0.0 mm
02:55 PM 40.2°F4.6°C 34.5°F1.4°C 80% 1.1 mph NE1.8 kmh NE 2.0 mph3.2 kmh 30.10 in1019.3 mb 0.00 in0.0 mm 0.00 in0.0 mm 0.00 in0.0 mm
03:00 PM 40.4°F4.7°C 34.7°F1.5°C 80% 1.6 mph E2.6 kmh E 4.0 mph6.4 kmh 30.11 in1019.6 mb 0.00 in0.0 mm 0.00 in0.0 mm 0.00 in0.0 mm
03:05 PM 40.5°F4.7°C 34.8°F1.6°C 80% 1.4 mph E2.3 kmh E 4.0 mph6.4 kmh 30.10 in1019.3 mb 0.00 in0.0 mm 0.00 in0.0 mm 0.00 in0.0 mm
03:10 PM 40.7°F4.8°C 35.0°F1.7°C 80% 2.2 mph E3.5 kmh E 5.0 mph8.0 kmh 30.10 in1019.3 mb 0.00 in0.0 mm 0.00 in0.0 mm 0.00 in0.0 mm
03:15 PM 40.4°F4.7°C 34.7°F1.5°C 80% 1.0 mph ESE1.6 kmh ESE 5.0 mph8.0 kmh 30.10 in1019.3 mb 0.00 in0.0 mm 0.00 in0.0 mm 0.00 in0.0 mm
03:20 PM 40.4°F4.7°C 35.0°F1.7°C 81% 2.3 mph ESE3.7 kmh ESE 5.0 mph8.0 kmh 30.09 in1019.0 mb 0.00 in0.0 mm 0.00 in0.0 mm 0.00 in0.0 mm
03:25 PM 40.4°F4.7°C 35.0°F1.7°C 81% 1.2 mph ESE1.9 kmh ESE 5.0 mph8.0 kmh 30.09 in1019.0 mb 0.00 in0.0 mm 0.00 in0.0 mm 0.00 in0.0 mm
03:30 PM 40.3°F4.6°C 35.2°F1.8°C 82% 1.7 mph ESE2.7 kmh ESE 4.0 mph6.4 kmh 30.09 in1019.0 mb 0.00 in0.0 mm 0.00 in0.0 mm 0.00 in0.0 mm
03:35 PM 40.2°F4.6°C 34.5°F1.4°C 80% 1.2 mph ESE1.9 kmh ESE 4.0 mph6.4 kmh 30.09 in1019.0 mb 0.00 in0.0 mm 0.00 in0.0 mm 0.00 in0.0 mm
03:40 PM 40.3°F4.6°C 34.3°F1.3°C 79% 1.6 mph ESE2.6 kmh ESE 4.0 mph6.4 kmh 30.09 in1019.0 mb 0.00 in0.0 mm 0.00 in0.0 mm 0.00 in0.0 mm
03:45 PM 40.3°F4.6°C 34.3°F1.3°C 79% 1.4 mph ESE2.3 kmh ESE 4.0 mph6.4 kmh 30.09 in1019.0 mb 0.00 in0.0 mm 0.00 in0.0 mm 0.00 in0.0 mm
03:50 PM 40.4°F4.7°C 34.1°F1.2°C 78% 1.9 mph ESE3.1 kmh ESE 5.0 mph8.0 kmh 30.08 in1018.6 mb 0.00 in0.0 mm 0.00 in0.0 mm 0.00 in0.0 mm
03:55 PM 40.3°F4.6°C 34.6°F1.4°C 80% 2.8 mph ESE4.5 kmh ESE 7.0 mph11.3 kmh 30.08 in1018.6 mb 0.00 in0.0 mm 0.00 in0.0 mm 0.00 in0.0 mm
04:00 PM 40.5°F4.7°C 34.2°F1.2°C 78% 1.5 mph ESE2.4 kmh ESE 7.0 mph11.3 kmh 30.08 in1018.6 mb 0.00 in0.0 mm 0.00 in0.0 mm 0.00 in0.0 mm
04:05 PM 40.3°F4.6°C 34.0°F1.1°C 78% 1.6 mph SE2.6 kmh SE 3.0 mph4.8 kmh 30.09 in1019.0 mb 0.00 in0.0 mm 0.00 in0.0 mm 0.00 in0.0 mm
04:10 PM 40.5°F4.7°C 34.5°F1.4°C 79% 0.5 mph E0.8 kmh E 3.0 mph4.8 kmh 30.08 in1018.6 mb 0.00 in0.0 mm 0.00 in0.0 mm 0.00 in0.0 mm
04:15 PM 40.7°F4.8°C 34.7°F1.5°C 79% 1.3 mph E2.1 kmh E 3.0 mph4.8 kmh 30.08 in1018.6 mb 0.00 in0.0 mm 0.00 in0.0 mm 0.00 in0.0 mm
04:20 PM 40.6°F4.8°C 34.6°F1.4°C 79% 1.6 mph ESE2.6 kmh ESE 3.0 mph4.8 kmh 30.08 in1018.6 mb 0.00 in0.0 mm 0.00 in0.0 mm 0.00 in0.0 mm
04:25 PM 40.8°F4.9°C 34.8°F1.6°C 79% 0.6 mph NE1.0 kmh NE 3.0 mph4.8 kmh 30.08 in1018.6 mb 0.00 in0.0 mm 0.00 in0.0 mm 0.00 in0.0 mm
04:30 PM 40.8°F4.9°C 34.5°F1.4°C 78% 0.3 mph N0.5 kmh N 2.0 mph3.2 kmh 30.09 in1019.0 mb 0.00 in0.0 mm 0.00 in0.0 mm 0.00 in0.0 mm
04:35 PM 41.0°F5.0°C 35.0°F1.7°C 79% 0.1 mph E0.2 kmh E 2.0 mph3.2 kmh 30.08 in1018.6 mb 0.00 in0.0 mm 0.00 in0.0 mm 0.00 in0.0 mm
04:40 PM 41.2°F5.1°C 35.2°F1.8°C 79% 0.5 mph E0.8 kmh E 2.0 mph3.2 kmh 30.08 in1018.6 mb 0.00 in0.0 mm 0.00 in0.0 mm 0.00 in0.0 mm
04:45 PM 41.3°F5.2°C 35.3°F1.8°C 79% 0.8 mph N1.3 kmh N 2.0 mph3.2 kmh 30.09 in1019.0 mb 0.00 in0.0 mm 0.00 in0.0 mm 0.00 in0.0 mm
04:50 PM 41.2°F5.1°C 35.2°F1.8°C 79% 0.8 mph E1.3 kmh E 2.0 mph3.2 kmh 30.09 in1019.0 mb 0.00 in0.0 mm 0.00 in0.0 mm 0.00 in0.0 mm
04:55 PM 41.1°F5.1°C 35.1°F1.7°C 79% 0.4 mph ESE0.6 kmh ESE 2.0 mph3.2 kmh 30.09 in1019.0 mb 0.00 in0.0 mm 0.00 in0.0 mm 0.00 in0.0 mm
05:00 PM 41.2°F5.1°C 35.2°F1.8°C 79% 0.1 mph ESE0.2 kmh ESE 2.0 mph3.2 kmh 30.09 in1019.0 mb 0.00 in0.0 mm 0.00 in0.0 mm 0.00 in0.0 mm
05:05 PM 41.2°F5.1°C 35.2°F1.8°C 79% 0.4 mph NNE0.6 kmh NNE 2.0 mph3.2 kmh 30.09 in1019.0 mb 0.00 in0.0 mm 0.00 in0.0 mm 0.00 in0.0 mm
05:10 PM 41.4°F5.2°C 35.7°F2.1°C 80% 0.3 mph NE0.5 kmh NE 2.0 mph3.2 kmh 30.09 in1019.0 mb 0.00 in0.0 mm 0.00 in0.0 mm 0.00 in0.0 mm
05:15 PM 41.4°F5.2°C 35.4°F1.9°C 79% 0.3 mph NE0.5 kmh NE 2.0 mph3.2 kmh 30.09 in1019.0 mb 0.00 in0.0 mm 0.00 in0.0 mm 0.00 in0.0 mm
05:20 PM 41.3°F5.2°C 35.3°F1.8°C 79% 0.4 mph E0.6 kmh E 2.0 mph3.2 kmh 30.09 in1019.0 mb 0.00 in0.0 mm 0.00 in0.0 mm 0.00 in0.0 mm
05:25 PM 41.3°F5.2°C 35.6°F2.0°C 80% 0.7 mph ENE1.1 kmh ENE 2.0 mph3.2 kmh 30.09 in1019.0 mb 0.00 in0.0 mm 0.00 in0.0 mm 0.00 in0.0 mm
05:30 PM 41.3°F5.2°C 35.6°F2.0°C 80% 0.5 mph N0.8 kmh N 3.0 mph4.8 kmh 30.10 in1019.3 mb 0.00 in0.0 mm 0.00 in0.0 mm 0.00 in0.0 mm
05:35 PM 41.1°F5.1°C 35.7°F2.1°C 81% 1.1 mph NW1.8 kmh NW 3.0 mph4.8 kmh 30.10 in1019.3 mb 0.00 in0.0 mm 0.00 in0.0 mm 0.00 in0.0 mm
05:40 PM 41.0°F5.0°C 35.3°F1.8°C 80% 1.4 mph N2.3 kmh N 3.0 mph4.8 kmh 30.10 in1019.3 mb 0.00 in0.0 mm 0.00 in0.0 mm 0.00 in0.0 mm
05:45 PM 40.9°F4.9°C 34.9°F1.6°C 79% 1.0 mph N1.6 kmh N 3.0 mph4.8 kmh 30.10 in1019.3 mb 0.00 in0.0 mm 0.00 in0.0 mm 0.00 in0.0 mm
05:50 PM 40.9°F4.9°C 35.2°F1.8°C 80% 0.9 mph NNW1.4 kmh NNW 2.0 mph3.2 kmh 30.11 in1019.6 mb 0.00 in0.0 mm 0.00 in0.0 mm 0.00 in0.0 mm
05:55 PM 41.0°F5.0°C 35.3°F1.8°C 80% 0.8 mph N1.3 kmh N 3.0 mph4.8 kmh 30.10 in1019.3 mb 0.00 in0.0 mm 0.00 in0.0 mm 0.00 in0.0 mm
06:00 PM 40.9°F4.9°C 35.2°F1.8°C 80% 0.4 mph NNW0.6 kmh NNW 3.0 mph4.8 kmh 30.10 in1019.3 mb 0.00 in0.0 mm 0.00 in0.0 mm 0.00 in0.0 mm
06:05 PM 41.0°F5.0°C 35.6°F2.0°C 81% 0.3 mph ESE0.5 kmh ESE 2.0 mph3.2 kmh 30.09 in1019.0 mb 0.00 in0.0 mm 0.00 in0.0 mm 0.00 in0.0 mm
06:10 PM 41.1°F5.1°C 35.7°F2.1°C 81% 0.5 mph E0.8 kmh E 2.0 mph3.2 kmh 30.09 in1019.0 mb 0.00 in0.0 mm 0.00 in0.0 mm 0.00 in0.0 mm
06:15 PM 41.3°F5.2°C 35.9°F2.2°C 81% 0.7 mph N1.1 kmh N 2.0 mph3.2 kmh 30.09 in1019.0 mb 0.00 in0.0 mm 0.00 in0.0 mm 0.00 in0.0 mm
06:20 PM 41.2°F5.1°C 35.8°F2.1°C 81% 1.2 mph N1.9 kmh N 3.0 mph4.8 kmh 30.10 in1019.3 mb 0.00 in0.0 mm 0.00 in0.0 mm 0.00 in0.0 mm
06:25 PM 41.2°F5.1°C 35.8°F2.1°C 81% 1.1 mph N1.8 kmh N 3.0 mph4.8 kmh 30.10 in1019.3 mb 0.00 in0.0 mm 0.00 in0.0 mm 0.00 in0.0 mm
06:30 PM 41.3°F5.2°C 35.9°F2.2°C 81% 1.1 mph NE1.8 kmh NE 3.0 mph4.8 kmh 30.10 in1019.3 mb 0.00 in0.0 mm 0.00 in0.0 mm 0.00 in0.0 mm
06:35 PM 41.3°F5.2°C 35.9°F2.2°C 81% 1.2 mph NNE1.9 kmh NNE 4.0 mph6.4 kmh 30.10 in1019.3 mb 0.00 in0.0 mm 0.00 in0.0 mm 0.00 in0.0 mm
06:40 PM 41.1°F5.1°C 36.0°F2.2°C 82% 1.6 mph NNW2.6 kmh NNW 4.0 mph6.4 kmh 30.10 in1019.3 mb 0.00 in0.0 mm 0.00 in0.0 mm 0.00 in0.0 mm
06:45 PM 41.2°F5.1°C 36.4°F2.4°C 83% 0.7 mph NE1.1 kmh NE 4.0 mph6.4 kmh 30.10 in1019.3 mb 0.00 in0.0 mm 0.00 in0.0 mm 0.00 in0.0 mm
06:50 PM 41.0°F5.0°C 35.9°F2.2°C 82% 1.3 mph N2.1 kmh N 3.0 mph4.8 kmh 30.10 in1019.3 mb 0.00 in0.0 mm 0.00 in0.0 mm 0.00 in0.0 mm
06:55 PM 40.9°F4.9°C 35.8°F2.1°C 82% 1.2 mph NNE1.9 kmh NNE 3.0 mph4.8 kmh 30.10 in1019.3 mb 0.00 in0.0 mm 0.00 in0.0 mm 0.00 in0.0 mm
07:00 PM 40.8°F4.9°C 36.0°F2.2°C 83% 1.0 mph NE1.6 kmh NE 3.0 mph4.8 kmh 30.10 in1019.3 mb 0.00 in0.0 mm 0.00 in0.0 mm 0.00 in0.0 mm
07:05 PM 40.8°F4.9°C 36.0°F2.2°C 83% 1.2 mph NNE1.9 kmh NNE 3.0 mph4.8 kmh 30.10 in1019.3 mb 0.00 in0.0 mm 0.00 in0.0 mm 0.00 in0.0 mm
07:10 PM 40.8°F4.9°C 36.3°F2.4°C 84% 0.7 mph N1.1 kmh N 3.0 mph4.8 kmh 30.10 in1019.3 mb 0.00 in0.0 mm 0.00 in0.0 mm 0.00 in0.0 mm
07:15 PM 40.6°F4.8°C 36.2°F2.3°C 84% 0.9 mph NNE1.4 kmh NNE 3.0 mph4.8 kmh 30.10 in1019.3 mb 0.00 in0.0 mm 0.00 in0.0 mm 0.00 in0.0 mm
07:20 PM 40.6°F4.8°C 36.2°F2.3°C 84% 0.8 mph NNE1.3 kmh NNE 3.0 mph4.8 kmh 30.11 in1019.6 mb 0.00 in0.0 mm 0.00 in0.0 mm 0.00 in0.0 mm
07:25 PM 40.5°F4.7°C 36.1°F2.3°C 84% 0.9 mph N1.4 kmh N 3.0 mph4.8 kmh 30.11 in1019.6 mb 0.00 in0.0 mm 0.00 in0.0 mm 0.00 in0.0 mm
07:30 PM 40.5°F4.7°C 36.1°F2.3°C 84% 0.8 mph N1.3 kmh N 3.0 mph4.8 kmh 30.12 in1020.0 mb 0.00 in0.0 mm 0.00 in0.0 mm 0.00 in0.0 mm
07:35 PM 40.5°F4.7°C 36.1°F2.3°C 84% 0.6 mph N1.0 kmh N 2.0 mph3.2 kmh 30.11 in1019.6 mb 0.00 in0.0 mm 0.00 in0.0 mm 0.00 in0.0 mm
07:40 PM 40.4°F4.7°C 36.0°F2.2°C 84% 1.1 mph N1.8 kmh N 4.0 mph6.4 kmh 30.11 in1019.6 mb 0.00 in0.0 mm 0.00 in0.0 mm 0.00 in0.0 mm
07:45 PM 40.5°F4.7°C 36.1°F2.3°C 84% 1.5 mph N2.4 kmh N 4.0 mph6.4 kmh 30.11 in1019.6 mb 0.00 in0.0 mm 0.00 in0.0 mm 0.00 in0.0 mm
07:50 PM 40.5°F4.7°C 36.1°F2.3°C 84% 1.5 mph N2.4 kmh N 4.0 mph6.4 kmh 30.11 in1019.6 mb 0.00 in0.0 mm 0.00 in0.0 mm 0.00 in0.0 mm
07:55 PM 40.5°F4.7°C 36.4°F2.4°C 85% 0.5 mph NNE0.8 kmh NNE 4.0 mph6.4 kmh 30.12 in1020.0 mb 0.00 in0.0 mm 0.00 in0.0 mm 0.00 in0.0 mm
08:00 PM 40.5°F4.7°C 36.4°F2.4°C 85% 0.9 mph N1.4 kmh N 3.0 mph4.8 kmh 30.11 in1019.6 mb 0.00 in0.0 mm 0.00 in0.0 mm 0.00 in0.0 mm
08:05 PM 40.5°F4.7°C 36.4°F2.4°C 85% 0.8 mph NE1.3 kmh NE 3.0 mph4.8 kmh 30.11 in1019.6 mb 0.00 in0.0 mm 0.00 in0.0 mm 0.00 in0.0 mm
08:10 PM 40.5°F4.7°C 36.1°F2.3°C 84% 1.3 mph N2.1 kmh N 3.0 mph4.8 kmh 30.12 in1020.0 mb 0.00 in0.0 mm 0.00 in0.0 mm 0.00 in0.0 mm
08:15 PM 40.6°F4.8°C 36.2°F2.3°C 84% 0.9 mph N1.4 kmh N 3.0 mph4.8 kmh 30.13 in1020.3 mb 0.00 in0.0 mm 0.00 in0.0 mm 0.00 in0.0 mm
08:20 PM 40.6°F4.8°C 36.2°F2.3°C 84% 1.5 mph N2.4 kmh N 4.0 mph6.4 kmh 30.12 in1020.0 mb 0.00 in0.0 mm 0.00 in0.0 mm 0.00 in0.0 mm
08:25 PM 40.6°F4.8°C 36.2°F2.3°C 84% 1.0 mph N1.6 kmh N 4.0 mph6.4 kmh 30.12 in1020.0 mb 0.00 in0.0 mm 0.00 in0.0 mm 0.00 in0.0 mm
08:30 PM 40.7°F4.8°C 36.5°F2.5°C 85% 1.1 mph NNE1.8 kmh NNE 3.0 mph4.8 kmh 30.13 in1020.3 mb 0.00 in0.0 mm 0.00 in0.0 mm 0.00 in0.0 mm
08:35 PM 40.7°F4.8°C 36.2°F2.3°C 84% 1.9 mph N3.1 kmh N 4.0 mph6.4 kmh 30.14 in1020.7 mb 0.00 in0.0 mm 0.00 in0.0 mm 0.00 in0.0 mm
08:40 PM 40.6°F4.8°C 36.2°F2.3°C 84% 2.2 mph N3.5 kmh N 4.0 mph6.4 kmh 30.13 in1020.3 mb 0.00 in0.0 mm 0.00 in0.0 mm 0.00 in0.0 mm
08:45 PM 40.6°F4.8°C 36.2°F2.3°C 84% 1.8 mph N2.9 kmh N 4.0 mph6.4 kmh 30.14 in1020.7 mb 0.00 in0.0 mm 0.00 in0.0 mm 0.00 in0.0 mm
08:50 PM 40.6°F4.8°C 36.4°F2.4°C 85% 1.4 mph NNW2.3 kmh NNW 3.0 mph4.8 kmh 30.14 in1020.7 mb 0.00 in0.0 mm 0.00 in0.0 mm 0.00 in0.0 mm
08:55 PM 40.7°F4.8°C 36.5°F2.5°C 85% 1.4 mph N2.3 kmh N 4.0 mph6.4 kmh 30.14 in1020.7 mb 0.00 in0.0 mm 0.00 in0.0 mm 0.00 in0.0 mm
09:00 PM 40.7°F4.8°C 36.5°F2.5°C 85% 1.7 mph N2.7 kmh N 4.0 mph6.4 kmh 30.14 in1020.7 mb 0.00 in0.0 mm 0.00 in0.0 mm 0.00 in0.0 mm
09:05 PM 40.7°F4.8°C 36.5°F2.5°C 85% 1.7 mph N2.7 kmh N 4.0 mph6.4 kmh 30.14 in1020.7 mb 0.00 in0.0 mm 0.00 in0.0 mm 0.00 in0.0 mm
09:10 PM 40.7°F4.8°C 36.5°F2.5°C 85% 1.7 mph N2.7 kmh N 4.0 mph6.4 kmh 30.14 in1020.7 mb 0.00 in0.0 mm 0.00 in0.0 mm 0.00 in0.0 mm
09:15 PM 40.8°F4.9°C 36.9°F2.7°C 86% 0.8 mph N1.3 kmh N 4.0 mph6.4 kmh 30.14 in1020.7 mb 0.00 in0.0 mm 0.00 in0.0 mm 0.00 in0.0 mm
09:20 PM 40.8°F4.9°C 37.2°F2.9°C 87% 0.9 mph N1.4 kmh N 3.0 mph4.8 kmh 30.14 in1020.7 mb 0.00 in0.0 mm 0.00 in0.0 mm 0.00 in0.0 mm
09:25 PM 40.8°F4.9°C 37.2°F2.9°C 87% 0.8 mph NNW1.3 kmh NNW 3.0 mph4.8 kmh 30.14 in1020.7 mb 0.00 in0.0 mm 0.00 in0.0 mm 0.00 in0.0 mm
09:30 PM 40.7°F4.8°C 37.1°F2.8°C 87% 0.9 mph NNE1.4 kmh NNE 2.0 mph3.2 kmh 30.14 in1020.7 mb 0.00 in0.0 mm 0.00 in0.0 mm 0.00 in0.0 mm
09:35 PM 40.7°F4.8°C 37.4°F3.0°C 88% 0.4 mph NE0.6 kmh NE 4.0 mph6.4 kmh 30.14 in1020.7 mb 0.00 in0.0 mm 0.00 in0.0 mm 0.00 in0.0 mm
09:40 PM 40.6°F4.8°C 37.3°F2.9°C 88% 1.0 mph ENE1.6 kmh ENE 4.0 mph6.4 kmh 30.14 in1020.7 mb 0.00 in0.0 mm 0.00 in0.0 mm 0.00 in0.0 mm
09:45 PM 40.6°F4.8°C 37.3°F2.9°C 88% 1.1 mph NNE1.8 kmh NNE 4.0 mph6.4 kmh 30.15 in1021.0 mb 0.00 in0.0 mm 0.00 in0.0 mm 0.00 in0.0 mm
09:50 PM 40.6°F4.8°C 37.3°F2.9°C 88% 0.4 mph NE0.6 kmh NE 4.0 mph6.4 kmh 30.16 in1021.3 mb 0.00 in0.0 mm 0.00 in0.0 mm 0.00 in0.0 mm
09:55 PM 40.7°F4.8°C 37.4°F3.0°C 88% 1.0 mph NNE1.6 kmh NNE 3.0 mph4.8 kmh 30.16 in1021.3 mb 0.00 in0.0 mm 0.00 in0.0 mm 0.00 in0.0 mm
10:00 PM 40.6°F4.8°C 37.6°F3.1°C 89% 0.9 mph E1.4 kmh E 3.0 mph4.8 kmh 30.16 in1021.3 mb 0.00 in0.0 mm 0.00 in0.0 mm 0.00 in0.0 mm
10:05 PM 40.6°F4.8°C 37.6°F3.1°C 89% 1.0 mph ENE1.6 kmh ENE 3.0 mph4.8 kmh 30.16 in1021.3 mb 0.00 in0.0 mm 0.00 in0.0 mm 0.00 in0.0 mm
10:10 PM 40.6°F4.8°C 37.6°F3.1°C 89% 1.0 mph NE1.6 kmh NE 3.0 mph4.8 kmh 30.17 in1021.7 mb 0.00 in0.0 mm 0.00 in0.0 mm 0.00 in0.0 mm
10:15 PM 40.6°F4.8°C 37.6°F3.1°C 89% 0.9 mph NE1.4 kmh NE 3.0 mph4.8 kmh 30.17 in1021.7 mb 0.00 in0.0 mm 0.00 in0.0 mm 0.00 in0.0 mm
10:20 PM 40.5°F4.7°C 37.5°F3.1°C 89% 0.8 mph NE1.3 kmh NE 3.0 mph4.8 kmh 30.17 in1021.7 mb 0.00 in0.0 mm 0.00 in0.0 mm 0.00 in0.0 mm
10:25 PM 40.5°F4.7°C 37.5°F3.1°C 89% 1.3 mph N2.1 kmh N 4.0 mph6.4 kmh 30.18 in1022.0 mb 0.00 in0.0 mm 0.00 in0.0 mm 0.00 in0.0 mm
10:30 PM 40.4°F4.7°C 37.4°F3.0°C 89% 1.4 mph N2.3 kmh N 5.0 mph8.0 kmh 30.18 in1022.0 mb 0.00 in0.0 mm 0.00 in0.0 mm 0.00 in0.0 mm
10:35 PM 40.3°F4.6°C 37.3°F2.9°C 89% 1.5 mph N2.4 kmh N 5.0 mph8.0 kmh 30.18 in1022.0 mb 0.00 in0.0 mm 0.00 in0.0 mm 0.00 in0.0 mm
10:40 PM 40.3°F4.6°C 37.6°F3.1°C 90% 1.3 mph NNE2.1 kmh NNE 4.0 mph6.4 kmh 30.18 in1022.0 mb 0.00 in0.0 mm 0.00 in0.0 mm 0.00 in0.0 mm
10:45 PM 40.2°F4.6°C 37.5°F3.1°C 90% 2.0 mph N3.2 kmh N 4.0 mph6.4 kmh 30.18 in1022.0 mb 0.00 in0.0 mm 0.00 in0.0 mm 0.00 in0.0 mm
10:50 PM 40.2°F4.6°C 37.5°F3.1°C 90% 2.0 mph N3.2 kmh N 4.0 mph6.4 kmh 30.18 in1022.0 mb 0.00 in0.0 mm 0.00 in0.0 mm 0.00 in0.0 mm
10:55 PM 40.2°F4.6°C 37.5°F3.1°C 90% 1.6 mph N2.6 kmh N 4.0 mph6.4 kmh 30.18 in1022.0 mb 0.00 in0.0 mm 0.00 in0.0 mm 0.00 in0.0 mm
11:00 PM 40.2°F4.6°C 37.5°F3.1°C 90% 2.7 mph N4.3 kmh N 7.0 mph11.3 kmh 30.19 in1022.4 mb 0.00 in0.0 mm 0.00 in0.0 mm 0.00 in0.0 mm
11:05 PM 40.2°F4.6°C 37.8°F3.2°C 91% 1.9 mph NW3.1 kmh NW 7.0 mph11.3 kmh 30.20 in1022.7 mb 0.00 in0.0 mm 0.00 in0.0 mm 0.00 in0.0 mm
11:10 PM 40.1°F4.5°C 37.7°F3.2°C 91% 2.1 mph NNE3.4 kmh NNE 5.0 mph8.0 kmh 30.20 in1022.7 mb 0.00 in0.0 mm 0.00 in0.0 mm 0.00 in0.0 mm
11:15 PM 40.1°F4.5°C 37.7°F3.2°C 91% 2.7 mph NNE4.3 kmh NNE 7.0 mph11.3 kmh 30.19 in1022.4 mb 0.00 in0.0 mm 0.00 in0.0 mm 0.00 in0.0 mm
11:20 PM 39.9°F4.4°C 37.5°F3.1°C 91% 2.4 mph N3.9 kmh N 7.0 mph11.3 kmh 30.19 in1022.4 mb 0.00 in0.0 mm 0.00 in0.0 mm 0.00 in0.0 mm
11:25 PM 39.9°F4.4°C 37.5°F3.1°C 91% 1.9 mph NNE3.1 kmh NNE 6.0 mph9.7 kmh 30.19 in1022.4 mb 0.00 in0.0 mm 0.00 in0.0 mm 0.00 in0.0 mm
11:30 PM 39.8°F4.3°C 37.7°F3.2°C 92% 1.5 mph NNE2.4 kmh NNE 6.0 mph9.7 kmh 30.19 in1022.4 mb 0.00 in0.0 mm 0.00 in0.0 mm 0.00 in0.0 mm
11:35 PM 39.7°F4.3°C 37.6°F3.1°C 92% 2.8 mph N4.5 kmh N 5.0 mph8.0 kmh 30.19 in1022.4 mb 0.00 in0.0 mm 0.00 in0.0 mm 0.00 in0.0 mm
11:40 PM 39.7°F4.3°C 37.3°F2.9°C 91% 2.1 mph N3.4 kmh N 5.0 mph8.0 kmh 30.19 in1022.4 mb 0.00 in0.0 mm 0.00 in0.0 mm 0.00 in0.0 mm
11:45 PM 39.6°F4.2°C 37.2°F2.9°C 91% 2.4 mph N3.9 kmh N 5.0 mph8.0 kmh 30.19 in1022.4 mb 0.00 in0.0 mm 0.00 in0.0 mm 0.00 in0.0 mm
11:50 PM 39.6°F4.2°C 37.2°F2.9°C 91% 2.5 mph N4.0 kmh N 6.0 mph9.7 kmh 30.19 in1022.4 mb 0.00 in0.0 mm 0.00 in0.0 mm 0.00 in0.0 mm
11:55 PM 39.6°F4.2°C 37.2°F2.9°C 91% 2.6 mph N4.2 kmh N 7.0 mph11.3 kmh 30.18 in1022.0 mb 0.00 in0.0 mm 0.00 in0.0 mm 0.00 in0.0 mm